createdAt,value
2018-06-16T00:02:01.718Z,100804.85
2018-06-16T00:04:35.044Z,100807.19
2018-06-16T00:07:08.550Z,100806.94
2018-06-16T00:09:41.903Z,100807.56
2018-06-16T00:12:15.406Z,100809.77
2018-06-16T00:14:48.743Z,100806.35
2018-06-16T00:17:22.278Z,100812.34
2018-06-16T00:19:55.617Z,100806.02
2018-06-16T00:22:30.068Z,100813.44
2018-06-16T00:25:03.376Z,100821.30
2018-06-16T00:27:37.382Z,100808.60
2018-06-16T00:30:12.001Z,100814.89
2018-06-16T00:32:45.399Z,100822.75
2018-06-16T00:35:18.894Z,100819.59
2018-06-16T00:37:52.401Z,100813.00
2018-06-16T00:40:25.849Z,100811.41
2018-06-16T00:42:59.233Z,100811.13
2018-06-16T00:45:32.541Z,100809.58
2018-06-16T00:48:11.810Z,100811.06
2018-06-16T00:50:45.240Z,100808.11
2018-06-16T00:53:18.608Z,100812.84
2018-06-16T00:55:52.059Z,100807.81
2018-06-16T00:58:25.438Z,100808.34
2018-06-16T01:00:58.843Z,100804.14
2018-06-16T01:03:33.062Z,100804.67
2018-06-16T01:06:06.639Z,100802.59
2018-06-16T01:08:40.011Z,100801.05
2018-06-16T01:11:13.417Z,100794.45
2018-06-16T01:13:46.765Z,100796.70
2018-06-16T01:16:20.459Z,100797.65
2018-06-16T01:19:01.813Z,100797.46
2018-06-16T01:21:35.111Z,100789.39
2018-06-16T01:24:08.585Z,100794.32
2018-06-16T01:26:42.482Z,100791.55
2018-06-16T01:29:15.942Z,100793.00
2018-06-16T01:31:49.370Z,100794.02
2018-06-16T01:34:22.919Z,100788.59
2018-06-16T01:36:56.280Z,100783.18
2018-06-16T01:39:30.376Z,100782.91
2018-06-16T01:42:03.678Z,100787.34
2018-06-16T01:44:37.058Z,100783.55
2018-06-16T01:47:10.711Z,100778.17
2018-06-16T01:49:44.057Z,100785.70
2018-06-16T01:52:17.413Z,100784.63
2018-06-16T01:54:50.913Z,100788.26
2018-06-16T01:57:24.306Z,100783.75
2018-06-16T01:59:57.707Z,100789.37
2018-06-16T02:02:31.120Z,100788.33
2018-06-16T02:05:04.462Z,100792.34
2018-06-16T02:07:37.937Z,100795.08
2018-06-16T02:10:11.373Z,100789.42
2018-06-16T02:12:44.787Z,100792.69
2018-06-16T02:15:18.169Z,100783.57
2018-06-16T02:17:51.737Z,100789.55
2018-06-16T02:20:25.110Z,100784.12
2018-06-16T02:22:58.497Z,100788.89
2018-06-16T02:25:32.638Z,100780.83
2018-06-16T02:28:06.730Z,100778.85
2018-06-16T02:30:40.093Z,100781.59
2018-06-16T02:33:13.455Z,100782.50
2018-06-16T02:35:46.854Z,100784.83
2018-06-16T02:38:20.330Z,100783.61
2018-06-16T02:40:53.762Z,100784.89
2018-06-16T02:43:27.106Z,100782.42
2018-06-16T02:46:01.133Z,100782.91
2018-06-16T02:48:34.438Z,100788.12
2018-06-16T02:51:07.957Z,100786.94
2018-06-16T02:53:41.378Z,100792.19
2018-06-16T02:56:14.770Z,100789.27
2018-06-16T02:58:48.178Z,100781.23
2018-06-16T03:01:21.570Z,100776.96
2018-06-16T03:03:54.988Z,100780.44
2018-06-16T03:06:28.383Z,100780.88
2018-06-16T03:09:02.273Z,100775.36
2018-06-16T03:11:36.464Z,100777.97
2018-06-16T03:14:09.870Z,100774.17
2018-06-16T03:16:43.264Z,100773.75
2018-06-16T03:19:16.597Z,100772.98
2018-06-16T03:21:50.021Z,100769.62
2018-06-16T03:24:23.415Z,100766.59
2018-06-16T03:26:56.825Z,100763.99
2018-06-16T03:29:31.308Z,100760.13
2018-06-16T03:32:04.774Z,100758.47
2018-06-16T03:34:38.174Z,100759.69
2018-06-16T03:37:11.617Z,100757.39
2018-06-16T03:39:45.019Z,100753.50
2018-06-16T03:42:18.398Z,100750.77
2018-06-16T03:44:51.733Z,100750.10
2018-06-16T03:47:25.100Z,100749.45
2018-06-16T03:49:58.430Z,100743.33
2018-06-16T03:52:32.437Z,100748.16
2018-06-16T03:55:06.145Z,100741.89
2018-06-16T03:57:39.544Z,100738.03
2018-06-16T04:00:12.959Z,100737.92
2018-06-16T04:02:46.360Z,100743.40
2018-06-16T04:05:19.754Z,100734.22
2018-06-16T04:07:53.082Z,100732.52
2018-06-16T04:10:26.468Z,100731.33
2018-06-16T04:13:00.527Z,100736.03
2018-06-16T04:15:33.915Z,100742.17
2018-06-16T04:18:07.354Z,100740.18
2018-06-16T04:20:40.686Z,100736.16
2018-06-16T04:23:14.036Z,100739.75
2018-06-16T04:25:47.386Z,100737.12
2018-06-16T04:28:20.736Z,100741.89
2018-06-16T04:30:54.103Z,100743.60
2018-06-16T04:33:27.589Z,100739.50
2018-06-16T04:36:01.894Z,100722.48
2018-06-16T04:38:35.475Z,100720.86
2018-06-16T04:41:08.902Z,100723.02
2018-06-16T04:43:42.397Z,100724.42
2018-06-16T04:46:15.915Z,100723.03
2018-06-16T04:48:49.306Z,100723.05
2018-06-16T04:51:22.730Z,100719.63
2018-06-16T04:53:56.189Z,100718.55
2018-06-16T04:56:30.128Z,100717.05
2018-06-16T04:59:05.065Z,100713.45
2018-06-16T05:01:38.585Z,100711.09
2018-06-16T05:04:12.244Z,100714.11
2018-06-16T05:06:45.667Z,100714.20
2018-06-16T05:09:19.026Z,100709.20
2018-06-16T05:11:52.455Z,100710.11
2018-06-16T05:14:25.894Z,100707.41
2018-06-16T05:16:59.552Z,100703.97
2018-06-16T05:19:32.847Z,100698.91
2018-06-16T05:22:06.933Z,100699.53
2018-06-16T05:24:40.265Z,100700.92
2018-06-16T05:27:13.646Z,100700.80
2018-06-16T05:29:47.033Z,100698.86
2018-06-16T05:32:20.544Z,100702.69
2018-06-16T05:34:53.917Z,100698.80
2018-06-16T05:37:27.285Z,100703.16
2018-06-16T05:40:01.210Z,100697.13
2018-06-16T05:42:34.645Z,100702.50
2018-06-16T05:45:08.055Z,100698.42
2018-06-16T05:47:41.514Z,100700.48
2018-06-16T05:50:14.869Z,100700.29
2018-06-16T05:52:48.221Z,100696.21
2018-06-16T05:55:21.561Z,100683.24
2018-06-16T05:57:54.941Z,100689.62
2018-06-16T06:00:28.300Z,100683.23
2018-06-16T06:03:02.333Z,100686.72
2018-06-16T06:05:36.398Z,100697.58
2018-06-16T06:08:09.747Z,100689.05
2018-06-16T06:10:43.086Z,100687.28
2018-06-16T06:13:16.446Z,100693.59
2018-06-16T06:15:49.902Z,100688.84
2018-06-16T06:18:23.478Z,100696.53
2018-06-16T06:20:56.908Z,100697.30
2018-06-16T06:23:30.356Z,100696.00
2018-06-16T06:26:03.817Z,100705.23
2018-06-16T06:28:37.407Z,100695.66
2018-06-16T06:31:10.745Z,100698.77
2018-06-16T06:33:44.224Z,100702.88
2018-06-16T06:36:17.610Z,100703.28
2018-06-16T06:38:51.122Z,100699.47
2018-06-16T06:41:24.566Z,100699.73
2018-06-16T06:43:57.976Z,100699.16
2018-06-16T06:46:31.836Z,100702.23
2018-06-16T06:49:05.425Z,100693.76
2018-06-16T06:51:39.026Z,100701.72
2018-06-16T06:54:12.497Z,100695.22
2018-06-16T06:56:45.926Z,100702.20
2018-06-16T06:59:19.355Z,100685.56
2018-06-16T07:01:52.695Z,100689.62
2018-06-16T07:04:26.154Z,100691.09
2018-06-16T07:06:59.564Z,100684.23
2018-06-16T07:09:32.899Z,100692.30
2018-06-16T07:12:06.483Z,100686.23
2018-06-16T07:14:39.829Z,100684.61
2018-06-16T07:17:13.229Z,100685.45
2018-06-16T07:19:46.629Z,100690.34
2018-06-16T07:22:20.062Z,100680.92
2018-06-16T07:24:53.555Z,100679.09
2018-06-16T07:27:26.947Z,100682.52
2018-06-16T07:30:01.018Z,100678.05
2018-06-16T07:32:34.402Z,100680.97
2018-06-16T07:35:07.832Z,100677.29
2018-06-16T07:38:00.912Z,100678.90
2018-06-16T07:40:34.324Z,100680.34
2018-06-16T07:43:07.698Z,100681.20
2018-06-16T07:45:41.165Z,100681.02
2018-06-16T07:48:14.562Z,100679.75
2018-06-16T07:50:47.894Z,100677.62
2018-06-16T07:53:22.293Z,100677.84
2018-06-16T07:55:55.761Z,100678.83
2018-06-16T07:58:29.097Z,100665.44
2018-06-16T08:01:03.436Z,100674.84
2018-06-16T08:03:38.001Z,100675.12
2018-06-16T08:06:11.453Z,100673.34
2018-06-16T08:08:45.146Z,100675.87
2018-06-16T08:11:18.501Z,100676.74
2018-06-16T08:13:51.853Z,100684.80
2018-06-16T08:16:25.317Z,100672.56
2018-06-16T08:18:58.890Z,100674.19
2018-06-16T08:21:32.642Z,100673.95
2018-06-16T08:24:06.518Z,100667.81
2018-06-16T08:26:39.869Z,100673.66
2018-06-16T08:29:13.338Z,100666.55
2018-06-16T08:31:46.661Z,100666.89
2018-06-16T08:34:20.668Z,100669.94
2018-06-16T08:36:54.068Z,100670.73
2018-06-16T08:39:27.641Z,100666.22
2018-06-16T08:42:01.058Z,100661.16
2018-06-16T08:44:34.377Z,100662.43
2018-06-16T08:47:07.936Z,100663.02
2018-06-16T08:49:41.316Z,100658.04
2018-06-16T08:52:14.781Z,100656.39
2018-06-16T08:54:48.114Z,100653.24
2018-06-16T08:57:21.672Z,100654.03
2018-06-16T08:59:55.014Z,100644.32
2018-06-16T09:02:29.565Z,100644.03
2018-06-16T09:05:02.885Z,100643.55
2018-06-16T09:07:36.180Z,100645.54
2018-06-16T09:10:10.296Z,100629.87
2018-06-16T09:12:43.701Z,100642.10
2018-06-16T09:15:20.365Z,100639.06
2018-06-16T09:17:53.749Z,100631.45
2018-06-16T09:20:27.048Z,100639.05
2018-06-16T09:23:00.722Z,100639.39
2018-06-16T09:25:34.288Z,100641.41
2018-06-16T09:28:07.606Z,100643.45
2018-06-16T09:30:40.909Z,100639.18
2018-06-16T09:33:14.197Z,100635.67
2018-06-16T09:35:47.501Z,100639.48
2018-06-16T09:38:20.792Z,100644.78
2018-06-16T09:40:54.093Z,100642.91
2018-06-16T09:43:27.376Z,100643.85
2018-06-16T09:46:01.297Z,100640.83
2018-06-16T09:48:34.607Z,100644.89
2018-06-16T09:51:07.941Z,100648.27
2018-06-16T09:53:41.224Z,100641.26
2018-06-16T09:56:14.526Z,100640.84
2018-06-16T09:58:47.866Z,100639.05
2018-06-16T10:01:21.193Z,100638.48
2018-06-16T10:03:54.487Z,100636.09
2018-06-16T10:06:27.861Z,100637.98
2018-06-16T10:09:02.112Z,100635.52
2018-06-16T10:11:35.424Z,100634.16
2018-06-16T10:14:08.705Z,100626.80
2018-06-16T10:16:42.099Z,100633.21
2018-06-16T10:19:15.400Z,100628.41
2018-06-16T10:21:48.733Z,100627.10
2018-06-16T10:24:22.016Z,100625.75
2018-06-16T10:26:55.338Z,100618.64
2018-06-16T10:29:28.629Z,100614.98
2018-06-16T10:32:03.055Z,100617.61
2018-06-16T10:34:36.329Z,100623.53
2018-06-16T10:37:10.473Z,100612.26
2018-06-16T10:39:43.813Z,100617.64
2018-06-16T10:42:17.121Z,100611.20
2018-06-16T10:44:50.442Z,100611.10
2018-06-16T10:47:23.749Z,100605.80
2018-06-16T10:49:57.038Z,100593.19
2018-06-16T10:52:30.546Z,100598.73
2018-06-16T10:55:03.936Z,100594.55
2018-06-16T10:57:37.252Z,100594.98
2018-06-16T11:00:10.556Z,100590.98
2018-06-16T11:02:43.941Z,100585.66
2018-06-16T11:05:17.236Z,100586.73
2018-06-16T11:07:50.555Z,100583.72
2018-06-16T11:10:23.868Z,100569.62
2018-06-16T11:12:57.196Z,100577.77
2018-06-16T11:15:30.521Z,100573.77
2018-06-16T11:18:03.855Z,100577.38
2018-06-16T11:20:37.158Z,100567.09
2018-06-16T11:23:10.454Z,100578.73
2018-06-16T11:25:43.753Z,100573.23
2018-06-16T11:28:17.160Z,100572.20
2018-06-16T11:30:50.448Z,100572.42
2018-06-16T11:33:23.761Z,100573.37
2018-06-16T11:35:57.060Z,100569.02
2018-06-16T11:38:30.556Z,100567.70
2018-06-16T11:41:03.865Z,100571.38
2018-06-16T11:43:37.317Z,100564.10
2018-06-16T11:46:10.655Z,100559.31
2018-06-16T11:48:44.018Z,100550.67
2018-06-16T11:51:17.306Z,100550.87
2018-06-16T11:53:50.600Z,100550.84
2018-06-16T11:56:23.917Z,100539.44
2018-06-16T11:58:57.217Z,100553.45
2018-06-16T12:01:30.722Z,100542.52
2018-06-16T12:04:04.017Z,100540.58
2018-06-16T12:06:37.360Z,100538.91
2018-06-16T12:09:12.331Z,100525.10
2018-06-16T12:11:45.637Z,100535.05
2018-06-16T12:14:18.920Z,100535.50
2018-06-16T12:16:52.267Z,100533.59
2018-06-16T12:19:25.553Z,100527.26
2018-06-16T12:21:58.880Z,100528.33
2018-06-16T12:24:33.132Z,100525.42
2018-06-16T12:27:06.436Z,100519.39
2018-06-16T12:29:39.777Z,100518.87
2018-06-16T12:32:13.077Z,100514.95
2018-06-16T12:34:46.379Z,100513.12
2018-06-16T12:37:19.723Z,100510.93
2018-06-16T12:39:53.322Z,100508.93
2018-06-16T12:42:26.663Z,100505.42
2018-06-16T12:45:00.701Z,100506.11
2018-06-16T12:47:34.013Z,100499.50
2018-06-16T12:50:07.450Z,100499.20
2018-06-16T12:52:40.773Z,100498.66
2018-06-16T12:55:14.068Z,100498.00
2018-06-16T12:57:47.435Z,100499.77
2018-06-16T13:00:20.725Z,100497.28
2018-06-16T13:02:54.037Z,100492.88
2018-06-16T13:05:27.313Z,100484.70
2018-06-16T13:08:00.622Z,100488.84
2018-06-16T13:10:33.931Z,100490.44
2018-06-16T13:13:07.237Z,100486.50
2018-06-16T13:15:40.556Z,100489.52
2018-06-16T13:18:13.882Z,100501.08
2018-06-16T13:20:47.188Z,100501.81
2018-06-16T13:23:20.508Z,100502.80
2018-06-16T13:25:53.809Z,100499.31
2018-06-16T13:28:27.123Z,100497.38
2018-06-16T13:31:00.751Z,100499.52
2018-06-16T13:33:34.070Z,100502.36
2018-06-16T13:36:07.362Z,100486.14
2018-06-16T13:38:40.809Z,100487.78
2018-06-16T13:41:14.181Z,100488.05
2018-06-16T13:43:47.492Z,100485.32
2018-06-16T13:46:20.757Z,100481.58
2018-06-16T13:48:54.084Z,100490.70
2018-06-16T13:51:27.430Z,100481.05
2018-06-16T13:54:00.765Z,100474.64
2018-06-16T13:56:34.071Z,100481.77
2018-06-16T13:59:07.408Z,100485.36
2018-06-16T14:01:40.704Z,100480.42
2018-06-16T14:04:14.011Z,100478.91
2018-06-16T14:06:47.337Z,100475.85
2018-06-16T14:09:20.736Z,100476.58
2018-06-16T14:11:54.005Z,100471.86
2018-06-16T14:14:27.322Z,100471.06
2018-06-16T14:17:01.895Z,100467.06
2018-06-16T14:19:35.224Z,100463.34
2018-06-16T14:22:08.606Z,100465.05
2018-06-16T14:24:42.280Z,100461.38
2018-06-16T14:27:15.584Z,100460.98
2018-06-16T14:29:48.939Z,100462.59
2018-06-16T14:32:22.612Z,100471.77
2018-06-16T14:34:55.929Z,100468.47
2018-06-16T14:37:29.722Z,100474.07
2018-06-16T14:40:03.076Z,100474.80
2018-06-16T14:42:36.425Z,100475.31
2018-06-16T14:45:09.737Z,100480.42
2018-06-16T14:47:43.048Z,100477.94
2018-06-16T14:50:16.360Z,100474.05
2018-06-16T14:52:49.650Z,100472.02
2018-06-16T14:55:22.966Z,100472.88
2018-06-16T14:57:57.062Z,100478.83
2018-06-16T15:00:30.672Z,100469.16
2018-06-16T15:03:03.978Z,100468.47
2018-06-16T15:05:37.884Z,100468.83
2018-06-16T15:08:11.230Z,100467.02
2018-06-16T15:10:44.540Z,100462.01
2018-06-16T15:13:18.357Z,100463.66
2018-06-16T15:15:51.988Z,100461.28
2018-06-16T15:18:25.264Z,100462.88
2018-06-16T15:20:58.907Z,100461.94
2018-06-16T15:23:32.954Z,100463.36
2018-06-16T15:26:06.274Z,100454.45
2018-06-16T15:28:39.561Z,100453.46
2018-06-16T15:31:12.856Z,100454.94
2018-06-16T15:33:46.157Z,100446.59
2018-06-16T15:36:19.616Z,100446.19
2018-06-16T15:38:52.940Z,100442.86
2018-06-16T15:41:27.643Z,100448.53
2018-06-16T15:44:01.591Z,100444.84
2018-06-16T15:46:34.947Z,100446.98
2018-06-16T15:49:09.416Z,100447.47
2018-06-16T15:51:42.682Z,100450.58
2018-06-16T15:54:16.005Z,100452.00
2018-06-16T15:56:49.759Z,100451.36
2018-06-16T15:59:23.065Z,100444.34
2018-06-16T16:01:56.349Z,100445.29
2018-06-16T16:04:30.978Z,100440.73
2018-06-16T16:07:04.317Z,100447.91
2018-06-16T16:09:37.682Z,100441.02
2018-06-16T16:12:11.190Z,100437.05
2018-06-16T16:14:44.863Z,100441.52
2018-06-16T16:17:18.261Z,100440.82
2018-06-16T16:19:56.551Z,100436.97
2018-06-16T16:22:29.941Z,100437.20
2018-06-16T16:25:04.300Z,100438.56
2018-06-16T16:27:38.489Z,100440.44
2018-06-16T16:30:12.986Z,100433.70
2018-06-16T16:32:46.413Z,100440.80
2018-06-16T16:35:19.851Z,100443.34
2018-06-16T16:37:55.361Z,100440.05
2018-06-16T16:40:28.856Z,100442.50
2018-06-16T16:43:02.764Z,100439.09
2018-06-16T16:45:38.324Z,100437.91
2018-06-16T16:48:11.667Z,100432.25
2018-06-16T16:50:45.161Z,100433.44
2018-06-16T16:53:18.601Z,100437.14
2018-06-16T16:55:51.913Z,100438.25
2018-06-16T16:58:25.203Z,100446.30
2018-06-16T17:01:05.068Z,100449.14
2018-06-16T17:03:38.446Z,100448.61
2018-06-16T17:06:11.802Z,100443.56
2018-06-16T17:08:46.639Z,100448.69
2018-06-16T17:11:20.025Z,100447.36
2018-06-16T17:13:53.749Z,100449.80
2018-06-16T17:16:27.112Z,100458.25
2018-06-16T17:19:01.501Z,100460.28
2018-06-16T17:21:34.801Z,100456.36
2018-06-16T17:24:08.095Z,100456.27
2018-06-16T17:26:41.504Z,100454.78
2018-06-16T17:29:14.801Z,100456.38
2018-06-16T17:31:48.397Z,100454.48
2018-06-16T17:34:21.818Z,100458.02
2018-06-16T17:36:55.348Z,100456.57
2018-06-16T17:39:28.707Z,100451.81
2018-06-16T17:42:02.900Z,100453.89
2018-06-16T17:44:36.234Z,100450.23
2018-06-16T17:47:09.573Z,100453.18
2018-06-16T17:49:43.102Z,100450.81
2018-06-16T17:52:16.561Z,100445.40
2018-06-16T17:54:49.910Z,100441.47
2018-06-16T17:57:23.237Z,100443.66
2018-06-16T17:59:56.761Z,100442.02
2018-06-16T18:02:30.807Z,100439.34
2018-06-16T18:05:04.133Z,100442.17
2018-06-16T18:07:37.594Z,100441.61
2018-06-16T18:10:11.153Z,100439.14
2018-06-16T18:12:44.550Z,100428.87
2018-06-16T18:15:17.878Z,100428.38
2018-06-16T18:17:51.250Z,100432.88
2018-06-16T18:20:24.655Z,100428.55
2018-06-16T18:22:58.029Z,100433.17
2018-06-16T18:25:32.510Z,100429.17
2018-06-16T18:28:06.133Z,100435.77
2018-06-16T18:30:39.478Z,100433.67
2018-06-16T18:33:13.049Z,100437.80
2018-06-16T18:35:46.437Z,100438.95
2018-06-16T18:38:20.401Z,100440.16
2018-06-16T18:40:54.002Z,100438.88
2018-06-16T18:43:27.459Z,100437.39
2018-06-16T18:46:00.809Z,100434.13
2018-06-16T18:48:34.200Z,100440.47
2018-06-16T18:51:07.793Z,100441.36
2018-06-16T18:53:41.148Z,100443.32
2018-06-16T18:56:14.554Z,100440.17
2018-06-16T18:58:47.897Z,100441.89
2018-06-16T19:01:21.480Z,100444.58
2018-06-16T19:03:54.833Z,100445.59
2018-06-16T19:06:28.205Z,100442.41
2018-06-16T19:09:02.419Z,100440.83
2018-06-16T19:11:36.451Z,100444.18
2018-06-16T19:14:10.003Z,100446.45
2018-06-16T19:16:44.110Z,100446.95
2018-06-16T19:19:17.502Z,100451.97
2018-06-16T19:21:50.983Z,100456.02
2018-06-16T19:24:24.330Z,100451.73
2018-06-16T19:26:57.698Z,100446.30
2018-06-16T19:29:31.637Z,100449.05
2018-06-16T19:32:05.057Z,100455.13
2018-06-16T19:34:38.950Z,100447.52
2018-06-16T19:37:12.298Z,100446.00
2018-06-16T19:39:45.670Z,100447.31
2018-06-16T19:42:19.042Z,100446.38
2018-06-16T19:44:52.634Z,100453.08
2018-06-16T19:47:25.985Z,100452.94
2018-06-16T19:49:59.342Z,100455.17
2018-06-16T19:52:32.697Z,100455.41
2018-06-16T19:55:06.292Z,100457.77
2018-06-16T19:57:39.656Z,100462.00
2018-06-16T20:00:13.030Z,100464.55
2018-06-16T20:02:46.438Z,100462.83
2018-06-16T20:05:19.792Z,100462.56
2018-06-16T20:07:53.171Z,100469.98
2018-06-16T20:10:26.500Z,100478.70
2018-06-16T20:12:59.846Z,100478.41
2018-06-16T20:15:33.205Z,100478.83
2018-06-16T20:18:06.787Z,100479.73
2018-06-16T20:20:40.242Z,100476.28
2018-06-16T20:23:13.593Z,100482.73
2018-06-16T20:25:46.927Z,100480.56
2018-06-16T20:28:20.509Z,100483.02
2018-06-16T20:30:53.853Z,100474.78
2018-06-16T20:33:27.233Z,100471.77
2018-06-16T20:36:00.639Z,100476.00
2018-06-16T20:38:33.947Z,100477.63
2018-06-16T20:41:07.617Z,100473.20
2018-06-16T20:43:41.034Z,100477.51
2018-06-16T20:46:14.455Z,100475.09
2018-06-16T20:48:47.871Z,100483.20
2018-06-16T20:51:21.322Z,100477.12
2018-06-16T20:53:54.693Z,100477.44
2018-06-16T20:56:32.222Z,100476.19
2018-06-16T20:59:05.697Z,100474.82
2018-06-16T21:01:39.121Z,100475.22
2018-06-16T21:04:12.462Z,100476.92
2018-06-16T21:06:45.775Z,100471.74
2018-06-16T21:09:19.150Z,100473.47
2018-06-16T21:11:52.489Z,100473.95
2018-06-16T21:14:25.903Z,100472.96
2018-06-16T21:16:59.305Z,100469.85
2018-06-16T21:19:32.668Z,100468.83
2018-06-16T21:22:06.542Z,100469.05
2018-06-16T21:24:39.918Z,100466.61
2018-06-16T21:27:13.318Z,100462.11
2018-06-16T21:29:46.667Z,100463.23
2018-06-16T21:32:20.044Z,100453.99
2018-06-16T21:34:53.649Z,100451.03
2018-06-16T21:37:26.966Z,100454.73
2018-06-16T21:40:01.109Z,100457.35
2018-06-16T21:42:35.439Z,100454.95
2018-06-16T21:45:08.831Z,100455.54
2018-06-16T21:47:42.186Z,100454.32
2018-06-16T21:50:15.609Z,100454.32
2018-06-16T21:52:48.977Z,100453.85
2018-06-16T21:55:22.332Z,100453.68
2018-06-16T21:57:55.701Z,100449.73
2018-06-16T22:00:38.781Z,100442.96
2018-06-16T22:03:28.810Z,100441.02
2018-06-16T22:06:03.086Z,100442.97
2018-06-16T22:08:36.497Z,100441.11
2018-06-16T22:11:09.849Z,100441.11
2018-06-16T22:13:43.273Z,100445.65
2018-06-16T22:16:16.618Z,100443.70
2018-06-16T22:18:50.153Z,100445.58
2018-06-16T22:21:23.517Z,100447.05
2018-06-16T22:23:56.905Z,100445.19
2018-06-16T22:26:30.941Z,100441.30
2018-06-16T22:29:04.906Z,100445.37
2018-06-16T22:31:38.464Z,100451.02
2018-06-16T22:34:11.885Z,100439.10
2018-06-16T22:36:45.284Z,100442.12
2018-06-16T22:39:18.631Z,100437.41
2018-06-16T22:41:52.014Z,100433.17
2018-06-16T22:44:25.414Z,100431.69
2018-06-16T22:46:58.745Z,100417.44
2018-06-16T22:49:32.337Z,100415.78
2018-06-16T22:52:05.733Z,100419.38
2018-06-16T22:54:39.108Z,100420.00
2018-06-16T22:57:12.533Z,100417.95
2018-06-16T22:59:45.989Z,100415.36
2018-06-16T23:02:19.369Z,100421.37
2018-06-16T23:04:52.798Z,100414.64
2018-06-16T23:07:26.145Z,100417.95
2018-06-16T23:09:59.518Z,100428.48
2018-06-16T23:12:33.062Z,100441.36
2018-06-16T23:15:06.541Z,100452.38
2018-06-16T23:17:39.933Z,100446.91
2018-06-16T23:20:13.274Z,100434.96
2018-06-16T23:22:46.624Z,100438.13
2018-06-16T23:25:19.986Z,100440.61
2018-06-16T23:27:53.359Z,100446.36
2018-06-16T23:30:26.737Z,100453.27
2018-06-16T23:33:01.137Z,100450.61
2018-06-16T23:35:34.470Z,100449.78
2018-06-16T23:38:08.139Z,100457.37
2018-06-16T23:40:41.666Z,100460.55
2018-06-16T23:43:15.013Z,100457.31
2018-06-16T23:45:48.353Z,100458.79
2018-06-16T23:48:32.672Z,100464.44
2018-06-16T23:51:06.739Z,100467.94
2018-06-16T23:53:40.123Z,100472.56
2018-06-16T23:56:13.465Z,100477.57
2018-06-16T23:58:46.794Z,100476.26
